Time;durP1;ratioP1;P1;durP2;ratioP2;P2;SDS_P1;SDS_P2;PMS_P1;PMS_P2;Temp;Humidity;BMP_temperature;BMP_pressure;BME280_temperature;BME280_humidity;BME280_pressure;Samples;Min_cycle;Max_cycle;Signal;HPM_P1;HPM_P2
2022/11/07 00:00:09;;;;;;;2.40;1.63;;;;;;;;;;5046447;28;20183;-58
2022/11/07 00:02:34;;;;;;;1.70;1.60;;;;;;;;;;5029813;28;20248;-58
2022/11/07 00:05:00;;;;;;;1.93;1.73;;;;;;;;;;5046623;28;20685;-58
2022/11/07 00:07:25;;;;;;;2.40;1.80;;;;;;;;;;5051562;28;20190;-57
2022/11/07 00:09:51;;;;;;;2.13;1.93;;;;;;;;;;5044941;28;20713;-58
2022/11/07 00:12:16;;;;;;;1.73;1.60;;;;;;;;;;5043425;28;20229;-59
2022/11/07 00:14:41;;;;;;;2.17;1.70;;;;;;;;;;5046031;28;20210;-58
2022/11/07 00:17:07;;;;;;;2.23;1.80;;;;;;;;;;5042635;28;20182;-59
2022/11/07 00:19:32;;;;;;;2.50;1.80;;;;;;;;;;5038822;28;20171;-58
2022/11/07 00:21:57;;;;;;;2.33;1.80;;;;;;;;;;5036433;28;20187;-59
2022/11/07 00:24:22;;;;;;;2.00;1.70;;;;;;;;;;5043752;28;20202;-58
2022/11/07 00:26:48;;;;;;;2.10;1.90;;;;;;;;;;5038827;28;20255;-58
2022/11/07 00:29:18;;;;;;;2.00;1.73;;;;;;;;;;5039373;28;20333;-57
2022/11/07 00:31:44;;;;;;;1.97;1.60;;;;;;;;;;5036893;28;20266;-59
2022/11/07 00:34:09;;;;;;;1.67;1.57;;;;;;;;;;5041697;28;20348;-58
2022/11/07 00:36:35;;;;;;;1.90;1.80;;;;;;;;;;5036674;28;20512;-59
2022/11/07 00:39:00;;;;;;;2.10;1.70;;;;;;;;;;5040237;28;20178;-58
2022/11/07 00:41:26;;;;;;;1.90;1.70;;;;;;;;;;5041291;28;20203;-59
2022/11/07 00:43:52;;;;;;;1.70;1.60;;;;;;;;;;5043619;28;20707;-59
2022/11/07 00:46:18;;;;;;;2.20;1.97;;;;;;;;;;5026670;28;20185;-59
2022/11/07 00:48:44;;;;;;;2.17;1.80;;;;;;;;;;5042023;28;20194;-57
2022/11/07 00:51:19;;;;;;;1.87;1.70;;;;;;;;;;5045325;28;20584;-59
2022/11/07 00:53:45;;;;;;;2.00;1.80;;;;;;;;;;5042164;28;20201;-59
2022/11/07 00:56:13;;;;;;;2.00;1.80;;;;;;;;;;5044343;28;20175;-57
2022/11/07 00:58:39;;;;;;;1.80;1.57;;;;;;;;;;5033422;28;20261;-58
2022/11/07 01:01:09;;;;;;;2.13;1.70;;;;;;;;;;5045693;28;20657;-57
2022/11/07 01:06:18;;;;;;;2.27;1.93;;;;;;;;;;5043997;28;20235;-58
2022/11/07 01:08:44;;;;;;;2.73;1.67;;;;;;;;;;5044399;28;20194;-58
2022/11/07 01:11:09;;;;;;;1.70;1.60;;;;;;;;;;5046205;28;20199;-58
2022/11/07 01:13:35;;;;;;;2.03;1.73;;;;;;;;;;5043702;28;20282;-59
2022/11/07 01:16:00;;;;;;;1.77;1.67;;;;;;;;;;5044284;28;20365;-58
2022/11/07 01:18:25;;;;;;;1.80;1.67;;;;;;;;;;5044333;28;20175;-59
2022/11/07 01:20:51;;;;;;;1.90;1.70;;;;;;;;;;5039547;28;20190;-59
2022/11/07 01:23:16;;;;;;;2.00;1.80;;;;;;;;;;5044559;28;20178;-59
2022/11/07 01:25:42;;;;;;;2.10;1.60;;;;;;;;;;5048379;28;20178;-57
2022/11/07 01:28:08;;;;;;;1.70;1.60;;;;;;;;;;5046742;28;20202;-57
2022/11/07 01:30:37;;;;;;;2.67;1.80;;;;;;;;;;5034650;28;20175;-58
2022/11/07 01:33:02;;;;;;;1.70;1.60;;;;;;;;;;5033397;28;20182;-59
2022/11/07 01:35:27;;;;;;;2.23;1.73;;;;;;;;;;5044343;28;20199;-57
2022/11/07 01:37:53;;;;;;;2.03;1.83;;;;;;;;;;5032838;28;20179;-58
2022/11/07 01:40:18;;;;;;;1.90;1.70;;;;;;;;;;5037618;28;20199;-59
2022/11/07 01:42:43;;;;;;;2.03;1.70;;;;;;;;;;5049181;28;20342;-58
2022/11/07 01:45:14;;;;;;;2.07;1.87;;;;;;;;;;5045811;28;20230;-59
2022/11/07 01:47:39;;;;;;;1.87;1.70;;;;;;;;;;5031089;28;20614;-59
2022/11/07 01:50:06;;;;;;;2.00;1.77;;;;;;;;;;5038080;28;20182;-57
2022/11/07 01:52:40;;;;;;;1.87;1.77;;;;;;;;;;5027577;28;20171;-58
2022/11/07 01:55:34;;;;;;;2.13;1.83;;;;;;;;;;5016898;28;20209;-58
2022/11/07 01:58:01;;;;;;;1.70;1.60;;;;;;;;;;5045662;28;20183;-56
2022/11/07 02:00:27;;;;;;;2.13;1.50;;;;;;;;;;5030848;28;20182;-58
2022/11/07 02:03:04;;;;;;;2.10;1.90;;;;;;;;;;5032051;28;20199;-59
2022/11/07 02:05:46;;;;;;;3.27;1.87;;;;;;;;;;5023571;28;20187;-57
2022/11/07 02:08:11;;;;;;;2.00;1.73;;;;;;;;;;5024654;28;20296;-59
2022/11/07 02:10:38;;;;;;;1.93;1.73;;;;;;;;;;5016241;28;20651;-58
2022/11/07 02:13:04;;;;;;;1.67;1.50;;;;;;;;;;5036875;28;20254;-58
2022/11/07 02:15:31;;;;;;;2.10;1.80;;;;;;;;;;5037841;28;20329;-58
2022/11/07 02:17:57;;;;;;;1.73;1.63;;;;;;;;;;5025197;28;20199;-58
2022/11/07 02:20:22;;;;;;;1.40;1.30;;;;;;;;;;5019476;28;20187;-58
2022/11/07 02:23:00;;;;;;;1.73;1.63;;;;;;;;;;5031940;28;20187;-59
2022/11/07 02:25:25;;;;;;;1.53;1.43;;;;;;;;;;5023683;28;20206;-59
2022/11/07 02:27:56;;;;;;;1.70;1.60;;;;;;;;;;5033877;28;20175;-57
2022/11/07 02:30:27;;;;;;;2.43;1.80;;;;;;;;;;5019015;28;20666;-59
2022/11/07 02:32:53;;;;;;;1.73;1.63;;;;;;;;;;5014473;28;20666;-56
2022/11/07 02:35:35;;;;;;;1.47;1.37;;;;;;;;;;5035585;28;20205;-59
2022/11/07 02:38:02;;;;;;;1.87;1.50;;;;;;;;;;5037949;28;20174;-59
2022/11/07 02:40:29;;;;;;;1.70;1.60;;;;;;;;;;5034726;28;20171;-58
2022/11/07 02:42:55;;;;;;;2.60;1.70;;;;;;;;;;5040059;28;20168;-57
2022/11/07 02:45:25;;;;;;;2.00;1.80;;;;;;;;;;5044211;28;20199;-58
2022/11/07 02:47:50;;;;;;;1.50;1.30;;;;;;;;;;5013770;28;20199;-60
2022/11/07 02:50:16;;;;;;;2.00;1.80;;;;;;;;;;5042183;28;20272;-58
2022/11/07 02:52:41;;;;;;;1.50;1.40;;;;;;;;;;5034483;28;20554;-59
2022/11/07 02:55:07;;;;;;;1.53;1.43;;;;;;;;;;5035876;28;20286;-57
2022/11/07 02:57:33;;;;;;;1.80;1.70;;;;;;;;;;5037962;28;20669;-54
2022/11/07 02:59:58;;;;;;;1.90;1.80;;;;;;;;;;5033259;28;20167;-58
2022/11/07 03:02:24;;;;;;;1.70;1.60;;;;;;;;;;5034178;28;20558;-58
2022/11/07 03:04:50;;;;;;;1.70;1.50;;;;;;;;;;5030109;28;20195;-59
2022/11/07 03:07:15;;;;;;;1.77;1.50;;;;;;;;;;5035910;28;20241;-57
2022/11/07 03:09:41;;;;;;;1.60;1.50;;;;;;;;;;5038201;28;20599;-56
2022/11/07 03:12:06;;;;;;;1.83;1.70;;;;;;;;;;5042344;28;20175;-59
2022/11/07 03:14:31;;;;;;;1.60;1.50;;;;;;;;;;5036112;28;20386;-59
2022/11/07 03:16:57;;;;;;;1.73;1.50;;;;;;;;;;5033791;28;20651;-57
2022/11/07 03:19:22;;;;;;;1.70;1.60;;;;;;;;;;5036525;28;20778;-57
2022/11/07 03:21:50;;;;;;;1.90;1.70;;;;;;;;;;5031409;28;20175;-56
2022/11/07 03:24:16;;;;;;;1.87;1.70;;;;;;;;;;5030986;28;20682;-54
2022/11/07 03:26:41;;;;;;;1.80;1.60;;;;;;;;;;5052980;28;20208;-58
2022/11/07 03:29:06;;;;;;;1.70;1.60;;;;;;;;;;5047232;28;20190;-55
2022/11/07 03:31:32;;;;;;;1.70;1.60;;;;;;;;;;5039023;28;20175;-56
2022/11/07 03:33:57;;;;;;;1.70;1.50;;;;;;;;;;5047662;28;20202;-55
2022/11/07 03:36:22;;;;;;;1.80;1.70;;;;;;;;;;5047574;28;20708;-56
2022/11/07 03:38:47;;;;;;;1.83;1.63;;;;;;;;;;5047394;28;20224;-58
2022/11/07 03:41:16;;;;;;;1.83;1.57;;;;;;;;;;5047392;28;20674;-55
2022/11/07 03:43:44;;;;;;;1.60;1.50;;;;;;;;;;5039513;28;20191;-57
2022/11/07 03:46:09;;;;;;;1.60;1.50;;;;;;;;;;5044546;28;20646;-56
2022/11/07 03:48:34;;;;;;;2.17;1.80;;;;;;;;;;5048921;28;20203;-57
2022/11/07 03:51:00;;;;;;;1.90;1.60;;;;;;;;;;5045469;28;20211;-59
2022/11/07 03:53:25;;;;;;;1.50;1.40;;;;;;;;;;5044434;28;20186;-57
2022/11/07 03:55:53;;;;;;;1.90;1.57;;;;;;;;;;5037786;28;20627;-57
2022/11/07 03:58:18;;;;;;;1.63;1.50;;;;;;;;;;5034053;28;20183;-58
2022/11/07 04:00:44;;;;;;;1.67;1.57;;;;;;;;;;5042228;28;20417;-57
2022/11/07 04:03:10;;;;;;;1.60;1.50;;;;;;;;;;5029354;28;20659;-56
2022/11/07 04:05:35;;;;;;;1.70;1.60;;;;;;;;;;5038008;28;20209;-57
2022/11/07 04:08:00;;;;;;;1.80;1.70;;;;;;;;;;5035448;28;20225;-57
2022/11/07 04:10:25;;;;;;;1.67;1.57;;;;;;;;;;5040691;28;20238;-57
2022/11/07 04:18:21;;;;;;;2.20;1.80;;;;;;;;;;5043073;28;20263;-55
2022/11/07 04:20:46;;;;;;;1.77;1.60;;;;;;;;;;5041443;28;20677;-54
2022/11/07 04:23:11;;;;;;;1.60;1.50;;;;;;;;;;5036373;28;20277;-57
2022/11/07 04:28:20;;;;;;;2.20;1.67;;;;;;;;;;5041173;28;20340;-56
2022/11/07 04:30:45;;;;;;;1.77;1.57;;;;;;;;;;5041410;28;20183;-55
2022/11/07 04:33:11;;;;;;;1.50;1.40;;;;;;;;;;5036662;28;20171;-55
2022/11/07 04:35:36;;;;;;;2.27;1.70;;;;;;;;;;5040446;28;20204;-57
2022/11/07 04:38:01;;;;;;;1.50;1.40;;;;;;;;;;5048979;28;20183;-57
2022/11/07 04:40:27;;;;;;;1.87;1.77;;;;;;;;;;5045255;28;20183;-57
2022/11/07 04:42:53;;;;;;;2.30;1.60;;;;;;;;;;5040497;28;20178;-58
2022/11/07 04:45:18;;;;;;;1.80;1.50;;;;;;;;;;5046624;28;20195;-57
2022/11/07 04:47:44;;;;;;;1.90;1.67;;;;;;;;;;5037172;28;20182;-59
2022/11/07 04:50:12;;;;;;;1.67;1.57;;;;;;;;;;5048805;28;20201;-57
2022/11/07 04:52:37;;;;;;;1.60;1.50;;;;;;;;;;5044625;28;20189;-56
2022/11/07 04:55:04;;;;;;;1.97;1.77;;;;;;;;;;5045832;28;20203;-54
2022/11/07 04:57:29;;;;;;;2.03;1.60;;;;;;;;;;5037876;28;20175;-57
2022/11/07 04:59:54;;;;;;;2.00;1.57;;;;;;;;;;5045918;28;20190;-57
2022/11/07 05:02:22;;;;;;;1.80;1.60;;;;;;;;;;5043740;28;20206;-57
2022/11/07 05:04:47;;;;;;;1.70;1.60;;;;;;;;;;5046178;28;20297;-55
2022/11/07 05:07:12;;;;;;;1.90;1.63;;;;;;;;;;5042552;28;20164;-56
2022/11/07 05:09:38;;;;;;;2.60;1.93;;;;;;;;;;5045911;28;20202;-58
2022/11/07 05:12:03;;;;;;;1.67;1.50;;;;;;;;;;5043488;28;20678;-56
2022/11/07 05:14:30;;;;;;;1.60;1.50;;;;;;;;;;5037433;28;20687;-57
2022/11/07 05:16:55;;;;;;;1.90;1.50;;;;;;;;;;5038539;28;20191;-57
2022/11/07 05:19:20;;;;;;;1.80;1.70;;;;;;;;;;5038772;28;20179;-57
2022/11/07 05:21:46;;;;;;;1.67;1.57;;;;;;;;;;5035691;28;20690;-56
2022/11/07 05:24:11;;;;;;;1.70;1.57;;;;;;;;;;5035475;28;20221;-58
2022/11/07 05:26:37;;;;;;;1.50;1.40;;;;;;;;;;5035253;28;20183;-56
2022/11/07 05:29:03;;;;;;;1.70;1.60;;;;;;;;;;5034961;28;20211;-57
2022/11/07 05:31:28;;;;;;;1.80;1.70;;;;;;;;;;5039560;28;20185;-56
2022/11/07 05:33:53;;;;;;;1.90;1.70;;;;;;;;;;5039345;28;20206;-56
2022/11/07 05:36:21;;;;;;;1.50;1.40;;;;;;;;;;5035726;28;20202;-58
2022/11/07 05:38:51;;;;;;;1.67;1.57;;;;;;;;;;5032756;28;20175;-57
2022/11/07 05:41:18;;;;;;;1.90;1.60;;;;;;;;;;5038840;28;20180;-58
2022/11/07 05:43:44;;;;;;;2.27;1.57;;;;;;;;;;5031983;28;20581;-58
2022/11/07 05:46:09;;;;;;;1.60;1.50;;;;;;;;;;5036578;28;20171;-56
2022/11/07 05:48:35;;;;;;;1.77;1.63;;;;;;;;;;5031258;28;20574;-58
2022/11/07 05:51:01;;;;;;;1.87;1.70;;;;;;;;;;5038749;28;20186;-57
2022/11/07 05:53:26;;;;;;;1.60;1.50;;;;;;;;;;5032833;28;20175;-56
2022/11/07 05:55:52;;;;;;;1.93;1.67;;;;;;;;;;5040029;28;20183;-57
2022/11/07 05:58:19;;;;;;;1.87;1.73;;;;;;;;;;5043040;28;20191;-58
2022/11/07 06:00:44;;;;;;;1.60;1.50;;;;;;;;;;5046896;28;20185;-57
2022/11/07 06:03:09;;;;;;;1.70;1.60;;;;;;;;;;5045650;28;20257;-57
2022/11/07 06:05:39;;;;;;;1.77;1.67;;;;;;;;;;5051033;28;20238;-57
2022/11/07 06:08:05;;;;;;;1.70;1.60;;;;;;;;;;5029912;28;20250;-58
2022/11/07 06:10:30;;;;;;;1.63;1.33;;;;;;;;;;5044884;28;20180;-56
2022/11/07 06:12:58;;;;;;;1.53;1.43;;;;;;;;;;5047653;28;20590;-56
2022/11/07 06:15:23;;;;;;;1.57;1.47;;;;;;;;;;5039596;28;20225;-58
2022/11/07 06:17:48;;;;;;;1.70;1.60;;;;;;;;;;5038742;28;20651;-59
2022/11/07 06:20:14;;;;;;;1.70;1.60;;;;;;;;;;5033911;28;20216;-58
2022/11/07 06:22:39;;;;;;;1.93;1.83;;;;;;;;;;5040470;28;20187;-55
2022/11/07 06:25:04;;;;;;;8.20;3.43;;;;;;;;;;5037529;28;20202;-55
2022/11/07 06:27:30;;;;;;;7.03;4.00;;;;;;;;;;5038912;28;20207;-55
2022/11/07 06:29:55;;;;;;;6.37;3.40;;;;;;;;;;5036803;28;20678;-56
2022/11/07 06:32:20;;;;;;;6.50;3.63;;;;;;;;;;5034747;28;20192;-54
2022/11/07 06:34:46;;;;;;;5.63;3.60;;;;;;;;;;5030641;28;20202;-55
2022/11/07 06:37:11;;;;;;;5.70;3.70;;;;;;;;;;5042304;28;20181;-53
2022/11/07 06:39:37;;;;;;;4.87;3.20;;;;;;;;;;5033065;28;20175;-53
2022/11/07 06:42:02;;;;;;;5.77;3.30;;;;;;;;;;5039015;28;20175;-50
2022/11/07 06:44:27;;;;;;;5.17;3.40;;;;;;;;;;5037135;28;20201;-51
2022/11/07 06:46:52;;;;;;;5.27;3.30;;;;;;;;;;5030769;28;20203;-53
2022/11/07 06:49:18;;;;;;;6.27;3.10;;;;;;;;;;5045312;28;20285;-55
2022/11/07 06:51:43;;;;;;;6.30;3.03;;;;;;;;;;5032017;28;20631;-54
2022/11/07 06:54:08;;;;;;;5.87;2.90;;;;;;;;;;5043210;28;20213;-54
2022/11/07 06:56:33;;;;;;;4.10;2.77;;;;;;;;;;5037363;28;20179;-55
2022/11/07 06:58:59;;;;;;;3.43;2.70;;;;;;;;;;5041676;28;20183;-54
2022/11/07 07:01:24;;;;;;;4.57;2.90;;;;;;;;;;5020774;28;20241;-52
2022/11/07 07:03:49;;;;;;;6.23;3.00;;;;;;;;;;4977945;28;20215;-55
2022/11/07 07:06:15;;;;;;;3.63;2.80;;;;;;;;;;5039976;28;20210;-53
2022/11/07 07:08:41;;;;;;;5.00;3.03;;;;;;;;;;5036629;28;20286;-51
2022/11/07 07:11:09;;;;;;;3.97;2.67;;;;;;;;;;5039028;28;20291;-52
2022/11/07 07:13:34;;;;;;;3.53;2.50;;;;;;;;;;5036065;28;20196;-56
2022/11/07 07:16:00;;;;;;;4.77;2.63;;;;;;;;;;5039416;28;20171;-55
2022/11/07 07:18:26;;;;;;;5.17;2.63;;;;;;;;;;5038932;28;20678;-55
2022/11/07 07:20:52;;;;;;;5.63;2.73;;;;;;;;;;5034157;28;20285;-51
2022/11/07 07:23:18;;;;;;;4.07;2.40;;;;;;;;;;5018623;28;20179;-54
2022/11/07 07:25:44;;;;;;;3.47;2.42;;;;;;;;;;5037592;28;20191;-53
2022/11/07 07:28:09;;;;;;;3.60;2.57;;;;;;;;;;5027923;28;20865;-51
2022/11/07 07:30:35;;;;;;;4.80;2.70;;;;;;;;;;5037240;28;20210;-52
2022/11/07 07:33:00;;;;;;;3.43;2.33;;;;;;;;;;5039090;28;20261;-53
2022/11/07 07:35:25;;;;;;;5.20;2.75;;;;;;;;;;5037791;28;20207;-51
2022/11/07 07:37:51;;;;;;;4.20;2.25;;;;;;;;;;5039213;28;20625;-52
2022/11/07 07:40:17;;;;;;;3.72;2.40;;;;;;;;;;5041042;28;20195;-52
2022/11/07 07:42:43;;;;;;;3.17;2.20;;;;;;;;;;5046951;28;20171;-52
2022/11/07 07:45:12;;;;;;;3.05;2.30;;;;;;;;;;5040712;28;20241;-51
2022/11/07 07:47:39;;;;;;;3.15;2.50;;;;;;;;;;5037021;28;20179;-52
2022/11/07 07:50:06;;;;;;;2.38;2.10;;;;;;;;;;5038287;28;20201;-54
2022/11/07 07:52:31;;;;;;;2.78;2.17;;;;;;;;;;5039487;28;20183;-54
2022/11/07 07:54:56;;;;;;;2.67;2.33;;;;;;;;;;5032615;28;20195;-52
2022/11/07 07:57:22;;;;;;;2.88;2.17;;;;;;;;;;5032925;28;20210;-54
2022/11/07 07:59:47;;;;;;;3.10;2.05;;;;;;;;;;5034436;28;20546;-54
2022/11/07 08:02:12;;;;;;;3.57;2.30;;;;;;;;;;5041325;28;20647;-55
2022/11/07 08:04:39;;;;;;;4.25;2.17;;;;;;;;;;5043086;28;20674;-53
2022/11/07 08:07:05;;;;;;;3.58;1.90;;;;;;;;;;5044326;28;20186;-53
2022/11/07 08:09:35;;;;;;;2.53;2.05;;;;;;;;;;5043298;28;20203;-55
2022/11/07 08:12:00;;;;;;;2.15;1.92;;;;;;;;;;5040163;28;20179;-52
2022/11/07 08:14:25;;;;;;;2.20;2.00;;;;;;;;;;5038132;28;20552;-55
2022/11/07 08:16:51;;;;;;;2.67;2.08;;;;;;;;;;5035837;28;20333;-55
2022/11/07 08:19:16;;;;;;;2.58;2.00;;;;;;;;;;5041605;28;20269;-55
2022/11/07 08:21:42;;;;;;;2.65;2.05;;;;;;;;;;5039744;28;20181;-56
2022/11/07 08:24:07;;;;;;;2.53;2.03;;;;;;;;;;5038963;28;20330;-52
2022/11/07 08:26:34;;;;;;;2.60;2.10;;;;;;;;;;5043995;28;20265;-57
2022/11/07 08:28:59;;;;;;;2.17;1.97;;;;;;;;;;5041910;28;20195;-54
2022/11/07 08:31:24;;;;;;;3.00;2.00;;;;;;;;;;5038414;28;20187;-53
2022/11/07 08:33:49;;;;;;;3.15;2.22;;;;;;;;;;5037643;28;20219;-55
2022/11/07 08:36:15;;;;;;;2.47;1.95;;;;;;;;;;5036717;28;20171;-54
2022/11/07 08:38:40;;;;;;;2.30;1.90;;;;;;;;;;5046727;28;20190;-57
2022/11/07 08:41:05;;;;;;;3.35;2.38;;;;;;;;;;5038206;28;20190;-54
2022/11/07 08:43:30;;;;;;;2.83;2.20;;;;;;;;;;5044762;28;20186;-58
2022/11/07 08:45:56;;;;;;;2.08;1.88;;;;;;;;;;5040128;28;20631;-56
2022/11/07 08:48:21;;;;;;;2.63;2.08;;;;;;;;;;5036253;28;20213;-57
2022/11/07 08:50:52;;;;;;;3.22;1.98;;;;;;;;;;5034235;28;20186;-55
2022/11/07 08:53:17;;;;;;;2.50;2.20;;;;;;;;;;5038415;28;20240;-56
2022/11/07 08:55:42;;;;;;;3.00;2.03;;;;;;;;;;5043398;28;20187;-55
2022/11/07 08:58:08;;;;;;;3.65;1.90;;;;;;;;;;5037959;28;20226;-54
2022/11/07 09:00:34;;;;;;;3.17;2.20;;;;;;;;;;5041847;28;20248;-58
2022/11/07 09:03:01;;;;;;;2.15;1.95;;;;;;;;;;5037722;28;20212;-58
2022/11/07 09:05:26;;;;;;;2.30;2.00;;;;;;;;;;5040553;28;20565;-59
2022/11/07 09:07:51;;;;;;;2.80;1.90;;;;;;;;;;5038750;28;20240;-58
2022/11/07 09:10:17;;;;;;;2.70;1.98;;;;;;;;;;5044064;28;20206;-58
2022/11/07 09:12:46;;;;;;;2.33;1.80;;;;;;;;;;5037330;28;20214;-58
2022/11/07 09:15:11;;;;;;;2.43;2.13;;;;;;;;;;5066107;22;20222;-56
2022/11/07 09:17:37;;;;;;;2.07;1.87;;;;;;;;;;5065509;28;20476;-56
2022/11/07 09:20:03;;;;;;;3.13;2.10;;;;;;;;;;5060375;28;20178;-57
2022/11/07 09:22:28;;;;;;;3.97;1.90;;;;;;;;;;5059174;28;20217;-58
2022/11/07 09:24:53;;;;;;;2.70;2.00;;;;;;;;;;5069901;28;20229;-56
2022/11/07 09:27:19;;;;;;;2.13;1.90;;;;;;;;;;5081609;28;20189;-58
2022/11/07 09:29:44;;;;;;;2.67;1.77;;;;;;;;;;5079143;28;20243;-60
2022/11/07 09:32:09;;;;;;;2.03;1.80;;;;;;;;;;5080694;28;20771;-61
2022/11/07 09:34:34;;;;;;;2.25;1.80;;;;;;;;;;5080382;28;20227;-61
2022/11/07 09:37:01;;;;;;;2.90;1.83;;;;;;;;;;5078281;28;20182;-59
2022/11/07 09:39:26;;;;;;;1.95;1.65;;;;;;;;;;5081655;28;20185;-61
2022/11/07 09:42:02;;;;;;;2.40;1.80;;;;;;;;;;5079525;28;20177;-58
2022/11/07 09:44:39;;;;;;;2.03;1.63;;;;;;;;;;5077039;28;20627;-58
2022/11/07 09:47:15;;;;;;;2.13;1.85;;;;;;;;;;5085203;28;20659;-52
2022/11/07 09:49:52;;;;;;;2.15;1.95;;;;;;;;;;5087064;28;20692;-53
2022/11/07 09:52:30;;;;;;;3.67;2.00;;;;;;;;;;5086594;28;20173;-53
2022/11/07 09:55:03;;;;;;;2.30;1.70;;;;;;;;;;5082328;28;20201;-58
2022/11/07 09:57:32;;;;;;;3.55;2.15;;;;;;;;;;5080705;28;20173;-60
2022/11/07 09:59:59;;;;;;;3.45;2.13;;;;;;;;;;5083072;28;20196;-50
2022/11/07 10:02:29;;;;;;;2.40;1.83;;;;;;;;;;5082383;28;20815;-57
2022/11/07 10:04:56;;;;;;;3.38;2.00;;;;;;;;;;5087894;28;20216;-60
2022/11/07 10:07:40;;;;;;;2.25;2.00;;;;;;;;;;5085589;28;20252;-58
2022/11/07 10:10:26;;;;;;;2.58;2.00;;;;;;;;;;5087280;28;20687;-61
2022/11/07 10:13:30;;;;;;;2.88;1.90;;;;;;;;;;5083944;28;20181;-57
2022/11/07 10:16:05;;;;;;;2.30;1.65;;;;;;;;;;5052461;28;20232;-61
2022/11/07 10:18:45;;;;;;;2.33;1.80;;;;;;;;;;5080083;28;20169;-58
2022/11/07 10:21:22;;;;;;;2.10;1.90;;;;;;;;;;5080558;28;20350;-60
2022/11/07 10:24:22;;;;;;;2.72;2.03;;;;;;;;;;5086294;28;20181;-59
2022/11/07 10:26:47;;;;;;;2.08;1.85;;;;;;;;;;5084904;28;20197;-60
2022/11/07 10:29:17;;;;;;;2.67;1.98;;;;;;;;;;5084475;28;20251;-60
2022/11/07 10:31:52;;;;;;;2.40;1.85;;;;;;;;;;5083212;28;20180;-60
2022/11/07 10:34:30;;;;;;;2.53;1.90;;;;;;;;;;5085396;28;20184;-59
2022/11/07 10:36:55;;;;;;;3.78;2.03;;;;;;;;;;5082711;28;20193;-60
2022/11/07 10:39:20;;;;;;;2.60;1.83;;;;;;;;;;5087222;28;20173;-60
2022/11/07 10:42:06;;;;;;;2.70;2.00;;;;;;;;;;5080872;28;20238;-59
2022/11/07 10:44:33;;;;;;;3.17;2.05;;;;;;;;;;5084156;28;20219;-59
2022/11/07 10:46:59;;;;;;;3.13;1.70;;;;;;;;;;5088138;28;20640;-58
2022/11/07 10:49:29;;;;;;;2.42;1.80;;;;;;;;;;5086375;28;20188;-60
2022/11/07 10:52:06;;;;;;;2.72;1.90;;;;;;;;;;5078486;28;20209;-55
2022/11/07 10:54:31;;;;;;;2.78;1.85;;;;;;;;;;5083569;28;20192;-61
2022/11/07 10:57:03;;;;;;;1.98;1.45;;;;;;;;;;5080136;28;20524;-58
2022/11/07 10:59:30;;;;;;;3.08;2.10;;;;;;;;;;5083708;28;20177;-62
2022/11/07 11:01:57;;;;;;;2.13;1.83;;;;;;;;;;5085092;28;20185;-61
2022/11/07 11:04:28;;;;;;;2.20;1.83;;;;;;;;;;5083347;28;20193;-60
2022/11/07 11:06:59;;;;;;;2.17;1.83;;;;;;;;;;5083380;28;20174;-61
2022/11/07 11:09:33;;;;;;;3.22;2.00;;;;;;;;;;5089290;28;20280;-60
2022/11/07 11:12:06;;;;;;;2.58;1.90;;;;;;;;;;5081570;28;20173;-56
2022/11/07 11:14:32;;;;;;;3.08;1.77;;;;;;;;;;5083218;28;20216;-59
2022/11/07 11:16:57;;;;;;;3.70;1.90;;;;;;;;;;5080380;28;20198;-60
2022/11/07 11:19:26;;;;;;;2.50;1.80;;;;;;;;;;5079371;28;20645;-59
2022/11/07 11:21:56;;;;;;;2.60;1.92;;;;;;;;;;5075847;28;20178;-59
2022/11/07 11:24:40;;;;;;;2.55;2.10;;;;;;;;;;5080601;28;20551;-59
2022/11/07 11:27:16;;;;;;;2.15;1.92;;;;;;;;;;5074086;28;20227;-60
2022/11/07 11:29:51;;;;;;;2.47;1.75;;;;;;;;;;5078680;28;20203;-59
2022/11/07 11:32:36;;;;;;;3.15;2.00;;;;;;;;;;5078129;28;20214;-59
2022/11/07 11:35:16;;;;;;;2.30;1.85;;;;;;;;;;5087018;28;20197;-61
2022/11/07 11:37:46;;;;;;;2.80;2.00;;;;;;;;;;5078606;28;20169;-61
2022/11/07 11:40:20;;;;;;;3.15;2.10;;;;;;;;;;5087245;28;20215;-59
2022/11/07 11:43:10;;;;;;;2.70;2.05;;;;;;;;;;5081481;28;20170;-58
2022/11/07 11:45:57;;;;;;;2.40;1.90;;;;;;;;;;5076156;28;20189;-54
2022/11/07 11:48:42;;;;;;;4.35;1.92;;;;;;;;;;5083292;28;20346;-60
2022/11/07 11:51:10;;;;;;;2.75;1.80;;;;;;;;;;5086132;28;20355;-58
2022/11/07 11:53:36;;;;;;;2.55;2.10;;;;;;;;;;5086099;28;20545;-57
2022/11/07 11:56:07;;;;;;;3.08;2.08;;;;;;;;;;5082789;28;20213;-58
2022/11/07 11:59:04;;;;;;;2.95;2.10;;;;;;;;;;5082877;28;20218;-61
2022/11/07 12:01:48;;;;;;;1.83;1.60;;;;;;;;;;5079022;28;20184;-60
2022/11/07 12:04:35;;;;;;;4.75;1.92;;;;;;;;;;5084889;28;20204;-58
2022/11/07 12:07:11;;;;;;;2.05;1.70;;;;;;;;;;5081372;28;20177;-59
2022/11/07 12:09:43;;;;;;;2.63;1.80;;;;;;;;;;5081302;28;20209;-58
2022/11/07 12:12:17;;;;;;;3.03;2.13;;;;;;;;;;5079740;28;20205;-57
2022/11/07 12:14:55;;;;;;;2.53;1.90;;;;;;;;;;5080850;28;20213;-58
2022/11/07 12:17:23;;;;;;;2.80;1.85;;;;;;;;;;5083078;28;20181;-60
2022/11/07 12:20:26;;;;;;;2.53;2.10;;;;;;;;;;5078106;28;20166;-59
2022/11/07 12:22:57;;;;;;;2.63;2.10;;;;;;;;;;5080501;28;20180;-56
2022/11/07 12:25:27;;;;;;;3.45;2.20;;;;;;;;;;5083994;28;20733;-60
2022/11/07 12:28:09;;;;;;;3.35;2.10;;;;;;;;;;5082334;28;20276;-59
2022/11/07 12:30:41;;;;;;;1.88;1.63;;;;;;;;;;5099924;28;20184;-58
2022/11/07 12:33:09;;;;;;;2.45;1.92;;;;;;;;;;5101615;28;22135;-59
2022/11/07 12:35:50;;;;;;;2.10;1.90;;;;;;;;;;5092705;28;20197;-59
2022/11/07 12:38:49;;;;;;;2.25;1.80;;;;;;;;;;5088484;28;20421;-57
2022/11/07 12:41:22;;;;;;;4.75;1.80;;;;;;;;;;5091421;28;20170;-60
2022/11/07 12:43:59;;;;;;;2.33;1.90;;;;;;;;;;5086720;28;20534;-59
2022/11/07 12:46:46;;;;;;;2.05;1.70;;;;;;;;;;5089353;28;20254;-60
2022/11/07 12:49:30;;;;;;;2.55;2.00;;;;;;;;;;5086223;28;20721;-59
2022/11/07 12:52:21;;;;;;;3.35;2.13;;;;;;;;;;5086685;28;20290;-60
2022/11/07 12:54:52;;;;;;;2.08;1.58;;;;;;;;;;5084369;28;20208;-59
2022/11/07 12:57:25;;;;;;;2.35;1.77;;;;;;;;;;5086162;28;20208;-59
2022/11/07 13:00:06;;;;;;;3.47;1.80;;;;;;;;;;5085025;28;20182;-60
2022/11/07 13:02:50;;;;;;;2.63;1.90;;;;;;;;;;5085018;28;20595;-55
2022/11/07 13:05:22;;;;;;;1.70;1.50;;;;;;;;;;5086106;28;20232;-59
2022/11/07 13:07:51;;;;;;;2.47;1.73;;;;;;;;;;5087360;28;20231;-61
2022/11/07 13:10:28;;;;;;;2.22;1.70;;;;;;;;;;5087621;28;20757;-62
2022/11/07 13:13:01;;;;;;;2.00;1.73;;;;;;;;;;5085399;28;20217;-61
2022/11/07 13:15:27;;;;;;;3.13;1.50;;;;;;;;;;5098788;27;20231;-59
2022/11/07 13:17:53;;;;;;;2.78;1.73;;;;;;;;;;5081943;28;20209;-59
2022/11/07 13:20:30;;;;;;;2.22;1.80;;;;;;;;;;5084880;28;20183;-62
2022/11/07 13:23:00;;;;;;;2.33;1.63;;;;;;;;;;5084997;28;20602;-61
2022/11/07 13:25:32;;;;;;;2.40;1.70;;;;;;;;;;5104365;28;20197;-58
2022/11/07 13:27:57;;;;;;;1.90;1.50;;;;;;;;;;5088363;28;20867;-60
2022/11/07 13:30:28;;;;;;;5.30;1.80;;;;;;;;;;5086033;28;20205;-59
2022/11/07 13:32:54;;;;;;;1.95;1.60;;;;;;;;;;5084946;28;20177;-59
2022/11/07 13:35:22;;;;;;;2.47;1.45;;;;;;;;;;5091452;28;20266;-58
2022/11/07 13:38:00;;;;;;;2.78;1.80;;;;;;;;;;5084446;28;20676;-60
2022/11/07 13:40:38;;;;;;;2.50;1.80;;;;;;;;;;5085292;28;20284;-58
2022/11/07 13:43:19;;;;;;;2.03;1.60;;;;;;;;;;5086371;28;20227;-57
2022/11/07 13:45:48;;;;;;;2.25;1.60;;;;;;;;;;5084875;28;20268;-60
2022/11/07 13:48:18;;;;;;;2.00;1.55;;;;;;;;;;5083863;28;20177;-59
2022/11/07 13:50:47;;;;;;;1.83;1.65;;;;;;;;;;5087363;28;20170;-57
2022/11/07 13:53:56;;;;;;;3.55;1.80;;;;;;;;;;5083017;28;20169;-57
2022/11/07 13:56:33;;;;;;;2.40;1.70;;;;;;;;;;5059496;28;20189;-58
2022/11/07 13:59:01;;;;;;;2.20;2.00;;;;;;;;;;5085218;28;20277;-59
2022/11/07 14:01:41;;;;;;;2.17;1.80;;;;;;;;;;5084731;28;20317;-63
2022/11/07 14:04:19;;;;;;;1.70;1.50;;;;;;;;;;5085214;28;20595;-59
2022/11/07 14:06:44;;;;;;;1.92;1.52;;;;;;;;;;5082563;28;20169;-60
2022/11/07 14:09:14;;;;;;;2.50;1.85;;;;;;;;;;5085007;28;20215;-60
2022/11/07 14:11:39;;;;;;;2.50;1.60;;;;;;;;;;5084746;28;20170;-60
2022/11/07 14:14:05;;;;;;;1.92;1.60;;;;;;;;;;5087502;28;20266;-60
2022/11/07 14:16:31;;;;;;;1.52;1.40;;;;;;;;;;5085788;28;20660;-61
2022/11/07 14:19:05;;;;;;;2.45;1.70;;;;;;;;;;5085359;28;20182;-62
2022/11/07 14:21:33;;;;;;;3.40;1.80;;;;;;;;;;5081911;28;20181;-61
2022/11/07 14:23:59;;;;;;;2.03;1.60;;;;;;;;;;5086109;28;20173;-61
2022/11/07 14:26:27;;;;;;;2.65;1.80;;;;;;;;;;5085557;28;20950;-61
2022/11/07 14:28:52;;;;;;;2.65;1.63;;;;;;;;;;5086587;28;20254;-61
2022/11/07 14:31:24;;;;;;;2.47;1.60;;;;;;;;;;5086825;28;20173;-57
2022/11/07 14:33:50;;;;;;;2.47;1.77;;;;;;;;;;5087563;28;20593;-59
2022/11/07 14:36:17;;;;;;;1.92;1.55;;;;;;;;;;5086030;28;20315;-59
2022/11/07 14:38:53;;;;;;;2.15;1.65;;;;;;;;;;5081597;28;20656;-58
2022/11/07 14:41:20;;;;;;;1.83;1.50;;;;;;;;;;5083244;28;20204;-59
2022/11/07 14:43:46;;;;;;;1.92;1.73;;;;;;;;;;5083250;28;20276;-61
2022/11/07 14:46:17;;;;;;;1.98;1.60;;;;;;;;;;5080830;28;20661;-62
2022/11/07 14:48:44;;;;;;;2.22;1.70;;;;;;;;;;5085185;28;20205;-60
2022/11/07 14:51:14;;;;;;;2.42;1.65;;;;;;;;;;5088542;28;20169;-60
2022/11/07 14:54:00;;;;;;;2.25;1.63;;;;;;;;;;5084978;28;20970;-59
2022/11/07 14:56:32;;;;;;;2.78;1.88;;;;;;;;;;5088276;28;20201;-62
2022/11/07 14:58:57;;;;;;;2.10;1.58;;;;;;;;;;5086745;28;20170;-60
2022/11/07 15:01:28;;;;;;;1.98;1.60;;;;;;;;;;5085969;28;20197;-61
2022/11/07 15:03:59;;;;;;;2.33;1.77;;;;;;;;;;5088983;28;20528;-62